Time;durP1;ratioP1;P1;durP2;ratioP2;P2;SDS_P1;SDS_P2;PMS_P1;PMS_P2;Temp;Humidity;BMP_temperature;BMP_pressure;BME280_temperature;BME280_humidity;BME280_pressure;Samples;Min_cycle;Max_cycle;Signal;HPM_P1;HPM_P2
2023/05/31 00:02:12;;;;;;;3.10;1.27;;;;;;;;;;5054675;28;20087;-60
2023/05/31 00:04:38;;;;;;;2.03;1.05;;;;;;;;;;5054784;28;20112;-60
2023/05/31 00:07:05;;;;;;;1.80;1.15;;;;;;;;;;5055670;28;20060;-60
2023/05/31 00:09:31;;;;;;;1.92;1.00;;;;;;;;;;5054363;28;20032;-60
2023/05/31 00:11:57;;;;;;;3.13;1.23;;;;;;;;;;5054937;28;20533;-60
2023/05/31 00:14:23;;;;;;;2.33;1.48;;;;;;;;;;5054512;28;20372;-60
2023/05/31 00:16:49;;;;;;;3.55;1.33;;;;;;;;;;5055181;28;20029;-60
2023/05/31 00:19:15;;;;;;;3.90;1.60;;;;;;;;;;5054538;28;20036;-60
2023/05/31 00:21:41;;;;;;;1.67;1.17;;;;;;;;;;5054506;28;20108;-60
2023/05/31 00:24:07;;;;;;;2.58;1.33;;;;;;;;;;5055189;28;20029;-60
2023/05/31 00:26:33;;;;;;;2.63;1.30;;;;;;;;;;5054509;28;20025;-60
2023/05/31 00:28:59;;;;;;;2.30;1.23;;;;;;;;;;5054211;28;20116;-60
2023/05/31 00:31:25;;;;;;;2.33;1.23;;;;;;;;;;5054089;28;20036;-61
2023/05/31 00:33:51;;;;;;;2.33;1.10;;;;;;;;;;5054855;28;20025;-60
2023/05/31 00:36:17;;;;;;;2.60;1.10;;;;;;;;;;5054542;28;20371;-60
2023/05/31 00:38:43;;;;;;;2.60;1.48;;;;;;;;;;5054173;28;20108;-60
2023/05/31 00:41:10;;;;;;;1.95;1.13;;;;;;;;;;5054115;28;20025;-60
2023/05/31 00:43:36;;;;;;;4.10;1.33;;;;;;;;;;5054144;28;20029;-60
2023/05/31 00:46:02;;;;;;;2.15;1.20;;;;;;;;;;5054668;28;20032;-60
2023/05/31 00:48:29;;;;;;;2.53;1.45;;;;;;;;;;5054354;28;20013;-60
2023/05/31 00:50:55;;;;;;;2.95;1.50;;;;;;;;;;5054138;28;20048;-60
2023/05/31 00:53:22;;;;;;;2.17;0.98;;;;;;;;;;5054196;28;20070;-60
2023/05/31 00:55:49;;;;;;;2.03;1.10;;;;;;;;;;5053928;28;20032;-60
2023/05/31 00:58:16;;;;;;;2.40;1.30;;;;;;;;;;5053390;28;20494;-60
2023/05/31 01:00:42;;;;;;;2.70;1.00;;;;;;;;;;5053705;28;20023;-60
2023/05/31 01:03:09;;;;;;;2.53;1.38;;;;;;;;;;5054146;28;20032;-60
2023/05/31 01:05:36;;;;;;;6.75;1.30;;;;;;;;;;5054006;28;20029;-60
2023/05/31 01:08:02;;;;;;;2.72;1.50;;;;;;;;;;5054399;28;20032;-60
2023/05/31 01:10:31;;;;;;;4.45;1.10;;;;;;;;;;5053402;28;20453;-60
2023/05/31 01:12:57;;;;;;;3.00;1.58;;;;;;;;;;5053678;28;20099;-60
2023/05/31 01:15:25;;;;;;;2.05;1.30;;;;;;;;;;5054112;28;20052;-60
2023/05/31 01:17:59;;;;;;;3.33;1.50;;;;;;;;;;5054113;28;20067;-60
2023/05/31 01:20:25;;;;;;;2.13;1.25;;;;;;;;;;5053671;28;20111;-60
2023/05/31 01:22:55;;;;;;;4.03;1.95;;;;;;;;;;5053501;28;20127;-60
2023/05/31 01:25:32;;;;;;;3.70;1.63;;;;;;;;;;5054135;28;20071;-60
2023/05/31 01:27:59;;;;;;;1.88;1.08;;;;;;;;;;5054111;28;20021;-60
2023/05/31 01:30:27;;;;;;;3.47;1.20;;;;;;;;;;5053961;28;20467;-60
2023/05/31 01:32:54;;;;;;;2.90;1.13;;;;;;;;;;5053479;28;20035;-60
2023/05/31 01:35:20;;;;;;;3.95;1.33;;;;;;;;;;5053761;28;20025;-60
2023/05/31 01:37:46;;;;;;;4.60;1.38;;;;;;;;;;5053813;28;20029;-60
2023/05/31 01:40:13;;;;;;;2.42;1.30;;;;;;;;;;5053489;28;20025;-60
2023/05/31 01:42:39;;;;;;;1.50;1.00;;;;;;;;;;5053385;28;20063;-60
2023/05/31 01:45:05;;;;;;;2.25;1.17;;;;;;;;;;5053449;28;20467;-60
2023/05/31 01:47:32;;;;;;;2.90;1.42;;;;;;;;;;5053686;28;20044;-60
2023/05/31 01:49:59;;;;;;;3.42;1.48;;;;;;;;;;5053767;28;20029;-60
2023/05/31 01:52:26;;;;;;;2.42;1.08;;;;;;;;;;5053380;28;20383;-60
2023/05/31 01:54:52;;;;;;;2.38;1.23;;;;;;;;;;5053634;28;20031;-60
2023/05/31 01:57:18;;;;;;;2.97;1.48;;;;;;;;;;5053620;28;20025;-60
2023/05/31 01:59:44;;;;;;;2.33;1.35;;;;;;;;;;5053153;28;20029;-60
2023/05/31 02:02:10;;;;;;;4.38;1.30;;;;;;;;;;5053226;28;20116;-60
2023/05/31 02:04:36;;;;;;;3.97;1.40;;;;;;;;;;5052878;28;20194;-60
2023/05/31 02:07:02;;;;;;;2.45;1.45;;;;;;;;;;5053496;28;20075;-60
2023/05/31 02:09:28;;;;;;;1.73;0.98;;;;;;;;;;5053134;28;20111;-60
2023/05/31 02:11:54;;;;;;;2.15;1.17;;;;;;;;;;5055507;28;20059;-60
2023/05/31 02:14:20;;;;;;;1.88;1.17;;;;;;;;;;5057159;28;20098;-60
2023/05/31 02:16:46;;;;;;;3.72;1.60;;;;;;;;;;5057166;28;20091;-60
2023/05/31 02:19:13;;;;;;;2.67;1.27;;;;;;;;;;5057140;28;20060;-60
2023/05/31 02:21:39;;;;;;;2.33;1.40;;;;;;;;;;5057213;28;20036;-60
2023/05/31 02:24:06;;;;;;;2.28;1.05;;;;;;;;;;5056763;28;20231;-60
2023/05/31 02:26:32;;;;;;;2.33;1.10;;;;;;;;;;5057041;28;20431;-60
2023/05/31 02:28:58;;;;;;;2.63;1.63;;;;;;;;;;5057198;28;20111;-60
2023/05/31 02:31:24;;;;;;;4.38;1.52;;;;;;;;;;5056561;28;20051;-60
2023/05/31 02:33:50;;;;;;;4.00;1.48;;;;;;;;;;5056599;28;20081;-60
2023/05/31 02:36:16;;;;;;;2.05;1.33;;;;;;;;;;5056441;28;20067;-60
2023/05/31 02:38:42;;;;;;;3.22;1.35;;;;;;;;;;5056237;28;20100;-60
2023/05/31 02:41:08;;;;;;;2.80;1.33;;;;;;;;;;5056508;28;20025;-60
2023/05/31 02:43:34;;;;;;;3.53;1.23;;;;;;;;;;5056987;28;20447;-60
2023/05/31 02:46:01;;;;;;;3.08;1.52;;;;;;;;;;5056127;28;20478;-60
2023/05/31 02:48:29;;;;;;;4.00;0.95;;;;;;;;;;5056987;28;20059;-60
2023/05/31 02:50:55;;;;;;;2.42;1.05;;;;;;;;;;5056143;28;20029;-60
2023/05/31 02:53:21;;;;;;;2.38;1.30;;;;;;;;;;5056751;28;20019;-60
2023/05/31 02:55:47;;;;;;;2.30;1.30;;;;;;;;;;5056144;28;20025;-60
2023/05/31 02:58:14;;;;;;;2.47;1.45;;;;;;;;;;5056139;28;20079;-60
2023/05/31 03:00:40;;;;;;;2.72;1.33;;;;;;;;;;5056017;28;20052;-60
2023/05/31 03:03:06;;;;;;;3.33;1.35;;;;;;;;;;5056046;28;20032;-60
2023/05/31 03:05:33;;;;;;;2.22;1.05;;;;;;;;;;5055989;28;20017;-60
2023/05/31 03:07:59;;;;;;;2.58;1.25;;;;;;;;;;5056101;28;20029;-60
2023/05/31 03:10:25;;;;;;;3.22;1.38;;;;;;;;;;5055714;28;20430;-60
2023/05/31 03:12:51;;;;;;;4.57;1.25;;;;;;;;;;5055846;28;20029;-60
2023/05/31 03:15:17;;;;;;;3.33;1.85;;;;;;;;;;5056842;28;20056;-60
2023/05/31 03:17:43;;;;;;;2.90;1.35;;;;;;;;;;5056243;28;20033;-60
2023/05/31 03:20:09;;;;;;;2.92;1.63;;;;;;;;;;5056286;28;20028;-60
2023/05/31 03:22:36;;;;;;;3.20;1.88;;;;;;;;;;5055582;28;20037;-60
2023/05/31 03:25:03;;;;;;;2.33;1.42;;;;;;;;;;5056127;28;20017;-60
2023/05/31 03:27:29;;;;;;;3.38;1.45;;;;;;;;;;5056091;28;20458;-60
2023/05/31 03:29:55;;;;;;;2.17;1.23;;;;;;;;;;5055406;28;20062;-60
2023/05/31 03:32:21;;;;;;;3.55;1.60;;;;;;;;;;5055506;28;20429;-60
2023/05/31 03:34:47;;;;;;;2.70;1.25;;;;;;;;;;5055532;28;20025;-60
2023/05/31 03:37:13;;;;;;;3.83;1.40;;;;;;;;;;5055794;28;20064;-60
2023/05/31 03:39:39;;;;;;;3.65;1.10;;;;;;;;;;5055407;28;20025;-60
2023/05/31 03:42:06;;;;;;;2.00;1.05;;;;;;;;;;5054649;28;20021;-60
2023/05/31 03:44:32;;;;;;;2.08;1.20;;;;;;;;;;5054925;28;20075;-60
2023/05/31 03:46:58;;;;;;;3.13;1.33;;;;;;;;;;5055861;28;20029;-60
2023/05/31 03:49:24;;;;;;;3.13;1.42;;;;;;;;;;5055905;28;20037;-60
2023/05/31 03:51:50;;;;;;;2.90;1.10;;;;;;;;;;5055204;28;20052;-60
2023/05/31 03:54:17;;;;;;;1.63;1.20;;;;;;;;;;5055380;28;20068;-60
2023/05/31 03:56:42;;;;;;;2.78;1.33;;;;;;;;;;5055402;28;20070;-60
2023/05/31 03:59:09;;;;;;;2.88;1.17;;;;;;;;;;5055019;28;20033;-60
2023/05/31 04:01:35;;;;;;;2.10;1.08;;;;;;;;;;5054949;28;20040;-60
2023/05/31 04:04:01;;;;;;;2.65;1.48;;;;;;;;;;5054618;28;20479;-60
2023/05/31 04:06:28;;;;;;;3.40;1.40;;;;;;;;;;5055444;28;20401;-60
2023/05/31 04:08:54;;;;;;;2.92;1.23;;;;;;;;;;5054727;28;20059;-60
2023/05/31 04:11:20;;;;;;;4.35;1.27;;;;;;;;;;5055554;28;20021;-60
2023/05/31 04:13:46;;;;;;;3.08;1.23;;;;;;;;;;5055092;28;20086;-60
2023/05/31 04:16:12;;;;;;;2.50;1.05;;;;;;;;;;5055371;28;20450;-60
2023/05/31 04:18:38;;;;;;;1.92;1.20;;;;;;;;;;5054977;28;20371;-60
2023/05/31 04:21:04;;;;;;;1.73;0.88;;;;;;;;;;5054848;28;20103;-60
2023/05/31 04:23:30;;;;;;;4.75;1.83;;;;;;;;;;5054776;28;20025;-60
2023/05/31 04:25:57;;;;;;;3.72;1.42;;;;;;;;;;5054869;28;20108;-60
2023/05/31 04:28:23;;;;;;;3.20;1.38;;;;;;;;;;5055250;28;20029;-60
2023/05/31 04:30:51;;;;;;;2.33;1.13;;;;;;;;;;5054388;28;20375;-60
2023/05/31 04:33:18;;;;;;;2.60;1.10;;;;;;;;;;5053746;28;20017;-60
2023/05/31 04:35:44;;;;;;;3.35;1.40;;;;;;;;;;5054395;28;20142;-60
2023/05/31 04:38:11;;;;;;;3.60;1.33;;;;;;;;;;5054561;28;20036;-60
2023/05/31 04:40:40;;;;;;;6.35;1.30;;;;;;;;;;5054181;28;20387;-60
2023/05/31 04:43:06;;;;;;;2.92;1.30;;;;;;;;;;5054717;28;20047;-60
2023/05/31 04:45:32;;;;;;;2.45;1.40;;;;;;;;;;5054419;28;20029;-60
2023/05/31 04:47:58;;;;;;;2.72;1.40;;;;;;;;;;5054166;28;20033;-60
2023/05/31 04:50:24;;;;;;;3.25;1.48;;;;;;;;;;5053754;28;20471;-60
2023/05/31 04:52:51;;;;;;;2.58;1.40;;;;;;;;;;5054012;28;20360;-60
2023/05/31 04:55:17;;;;;;;1.83;1.10;;;;;;;;;;5053572;28;20033;-60
2023/05/31 04:57:43;;;;;;;3.45;1.65;;;;;;;;;;5054302;28;20028;-60
2023/05/31 05:00:15;;;;;;;2.53;1.35;;;;;;;;;;5053979;28;20443;-60
2023/05/31 05:02:42;;;;;;;2.45;1.10;;;;;;;;;;5054899;28;20025;-59
2023/05/31 05:05:08;;;;;;;2.83;1.45;;;;;;;;;;5053935;28;20386;-59
2023/05/31 05:07:34;;;;;;;2.97;1.35;;;;;;;;;;5054430;28;20032;-59
2023/05/31 05:10:00;;;;;;;3.78;1.60;;;;;;;;;;5053613;28;20029;-59
2023/05/31 05:12:26;;;;;;;2.33;1.10;;;;;;;;;;5053641;28;20455;-59
2023/05/31 05:14:52;;;;;;;3.97;1.40;;;;;;;;;;5053290;28;20491;-59
2023/05/31 05:17:18;;;;;;;2.72;1.80;;;;;;;;;;5053988;28;20032;-59
2023/05/31 05:19:44;;;;;;;2.78;1.48;;;;;;;;;;5053658;28;20021;-59
2023/05/31 05:22:10;;;;;;;7.78;1.60;;;;;;;;;;5054208;28;20078;-59
2023/05/31 05:24:36;;;;;;;2.85;1.23;;;;;;;;;;5053903;28;20032;-59
2023/05/31 05:27:03;;;;;;;3.95;1.55;;;;;;;;;;5053736;28;20040;-59
2023/05/31 05:29:28;;;;;;;2.92;1.73;;;;;;;;;;5053527;28;20349;-59
2023/05/31 05:31:54;;;;;;;3.17;1.50;;;;;;;;;;5054354;28;20025;-59
2023/05/31 05:34:20;;;;;;;4.05;1.42;;;;;;;;;;5054163;28;20516;-59
2023/05/31 05:36:46;;;;;;;6.65;1.35;;;;;;;;;;5053816;28;20367;-59
2023/05/31 05:39:12;;;;;;;3.35;1.75;;;;;;;;;;5053839;28;20024;-59
2023/05/31 05:41:38;;;;;;;2.30;1.33;;;;;;;;;;5053509;28;20021;-59
2023/05/31 05:44:05;;;;;;;4.50;1.25;;;;;;;;;;5053783;28;20402;-59
2023/05/31 05:46:31;;;;;;;2.90;1.40;;;;;;;;;;5058074;28;20100;-59
2023/05/31 05:48:57;;;;;;;2.38;1.08;;;;;;;;;;5057677;28;20521;-59
2023/05/31 05:51:23;;;;;;;3.78;1.15;;;;;;;;;;5057357;28;20025;-59
2023/05/31 05:53:49;;;;;;;5.47;1.38;;;;;;;;;;5057297;28;20029;-59
2023/05/31 05:56:17;;;;;;;2.03;1.13;;;;;;;;;;5057669;28;20029;-59
2023/05/31 05:58:44;;;;;;;2.33;1.23;;;;;;;;;;5057735;28;20017;-59
2023/05/31 06:01:12;;;;;;;4.25;1.95;;;;;;;;;;5057011;28;20032;-59
2023/05/31 06:03:39;;;;;;;8.75;1.48;;;;;;;;;;5057082;28;20024;-59
2023/05/31 06:06:05;;;;;;;2.60;1.52;;;;;;;;;;5057495;28;20021;-59
2023/05/31 06:08:31;;;;;;;2.42;1.20;;;;;;;;;;5057121;28;20100;-59
2023/05/31 06:10:57;;;;;;;4.45;1.42;;;;;;;;;;5056908;28;20104;-59
2023/05/31 06:13:22;;;;;;;6.25;1.35;;;;;;;;;;5057049;28;20029;-59
2023/05/31 06:15:48;;;;;;;7.25;2.00;;;;;;;;;;5057047;28;20045;-59
2023/05/31 06:18:15;;;;;;;3.30;2.20;;;;;;;;;;5056934;28;20052;-59
2023/05/31 06:20:41;;;;;;;1.50;0.82;;;;;;;;;;5057552;28;20034;-59
2023/05/31 06:23:07;;;;;;;3.33;1.40;;;;;;;;;;5056743;28;20033;-59
2023/05/31 06:25:35;;;;;;;3.50;1.67;;;;;;;;;;5057265;28;20025;-59
2023/05/31 06:28:01;;;;;;;2.75;1.73;;;;;;;;;;5057006;28;20025;-59
2023/05/31 06:30:27;;;;;;;6.45;1.52;;;;;;;;;;5057240;28;20033;-59
2023/05/31 06:32:53;;;;;;;2.95;1.88;;;;;;;;;;5056647;28;20025;-59
2023/05/31 06:35:19;;;;;;;3.58;1.75;;;;;;;;;;5056777;28;20070;-59
2023/05/31 06:37:46;;;;;;;1.48;0.98;;;;;;;;;;5057000;28;20017;-59
2023/05/31 06:40:12;;;;;;;3.85;1.95;;;;;;;;;;5057334;28;20372;-59
2023/05/31 06:42:38;;;;;;;4.28;1.60;;;;;;;;;;5057269;28;20048;-59
2023/05/31 06:45:04;;;;;;;2.65;1.77;;;;;;;;;;5056441;28;20477;-59
2023/05/31 06:47:30;;;;;;;3.83;2.33;;;;;;;;;;5056552;28;20035;-59
2023/05/31 06:49:56;;;;;;;2.22;1.23;;;;;;;;;;5056297;28;20381;-59
2023/05/31 06:52:22;;;;;;;4.13;1.98;;;;;;;;;;5056292;28;20021;-59
2023/05/31 06:54:51;;;;;;;2.95;1.92;;;;;;;;;;5056705;28;20113;-59
2023/05/31 06:57:17;;;;;;;2.08;1.17;;;;;;;;;;5056577;28;20031;-59
2023/05/31 06:59:43;;;;;;;2.42;1.45;;;;;;;;;;5056350;28;20100;-59
2023/05/31 07:02:09;;;;;;;3.08;1.42;;;;;;;;;;5055996;28;20029;-59
2023/05/31 07:04:35;;;;;;;3.38;1.35;;;;;;;;;;5055987;28;20471;-59
2023/05/31 07:07:02;;;;;;;2.85;1.55;;;;;;;;;;5056617;28;20029;-59
2023/05/31 07:09:28;;;;;;;3.13;1.70;;;;;;;;;;5056072;28;20037;-59
2023/05/31 07:11:54;;;;;;;3.42;1.42;;;;;;;;;;5055841;28;20044;-59
2023/05/31 07:14:21;;;;;;;3.72;1.80;;;;;;;;;;5055568;28;20094;-59
2023/05/31 07:16:48;;;;;;;2.97;1.23;;;;;;;;;;5055681;28;20032;-59
2023/05/31 07:19:13;;;;;;;5.18;2.38;;;;;;;;;;5055702;28;20054;-59
2023/05/31 07:21:40;;;;;;;4.18;1.85;;;;;;;;;;5055757;28;20021;-59
2023/05/31 07:24:06;;;;;;;7.50;1.50;;;;;;;;;;5055699;28;20032;-59
2023/05/31 07:26:32;;;;;;;3.17;1.77;;;;;;;;;;5055857;28;20036;-59
2023/05/31 07:28:57;;;;;;;3.45;1.95;;;;;;;;;;5055361;28;20025;-59
2023/05/31 07:31:23;;;;;;;3.85;1.75;;;;;;;;;;5055582;28;20051;-59
2023/05/31 07:33:49;;;;;;;5.80;1.73;;;;;;;;;;5055988;28;20016;-59
2023/05/31 07:36:15;;;;;;;3.80;1.95;;;;;;;;;;5055407;28;20371;-59
2023/05/31 07:38:41;;;;;;;3.83;1.50;;;;;;;;;;5055622;28;20083;-59
2023/05/31 07:41:07;;;;;;;4.53;1.85;;;;;;;;;;5055367;28;20083;-59
2023/05/31 07:43:34;;;;;;;4.75;1.60;;;;;;;;;;5055904;28;20029;-59
2023/05/31 07:46:00;;;;;;;2.38;1.23;;;;;;;;;;5055880;28;20144;-60
2023/05/31 07:48:28;;;;;;;2.58;1.20;;;;;;;;;;5055787;28;20415;-60
2023/05/31 07:50:54;;;;;;;4.25;1.90;;;;;;;;;;5055078;28;20382;-60
2023/05/31 07:53:20;;;;;;;3.28;1.77;;;;;;;;;;5055753;28;20017;-60
2023/05/31 07:55:46;;;;;;;5.25;1.33;;;;;;;;;;5055565;28;20470;-60
2023/05/31 07:58:12;;;;;;;3.10;1.75;;;;;;;;;;5054985;28;20036;-60
2023/05/31 08:00:41;;;;;;;5.03;1.83;;;;;;;;;;5054894;28;20048;-59
2023/05/31 08:03:07;;;;;;;4.47;1.95;;;;;;;;;;5055326;28;20367;-59
2023/05/31 08:05:33;;;;;;;3.63;1.52;;;;;;;;;;5055460;28;20021;-59
2023/05/31 08:08:00;;;;;;;4.00;1.92;;;;;;;;;;5054699;28;20033;-59
2023/05/31 08:10:26;;;;;;;4.18;1.83;;;;;;;;;;5054414;28;20418;-59
2023/05/31 08:12:52;;;;;;;3.40;1.60;;;;;;;;;;5055442;28;20017;-59
2023/05/31 08:15:18;;;;;;;3.58;1.77;;;;;;;;;;5055323;28;20414;-59
2023/05/31 08:17:44;;;;;;;4.57;1.75;;;;;;;;;;5054617;28;20079;-59
2023/05/31 08:20:14;;;;;;;4.70;1.77;;;;;;;;;;5054618;28;20402;-59
2023/05/31 08:22:42;;;;;;;4.72;1.70;;;;;;;;;;5054575;28;20029;-61
2023/05/31 08:25:08;;;;;;;2.95;1.73;;;;;;;;;;5055236;28;20025;-59
2023/05/31 08:27:34;;;;;;;4.70;1.55;;;;;;;;;;5054996;28;20367;-59
2023/05/31 08:30:00;;;;;;;6.43;1.40;;;;;;;;;;5054242;28;20119;-59
2023/05/31 08:32:26;;;;;;;3.13;1.88;;;;;;;;;;5054833;28;20481;-59
2023/05/31 08:34:52;;;;;;;4.30;2.03;;;;;;;;;;5054578;28;20450;-59
2023/05/31 08:37:20;;;;;;;2.97;1.70;;;;;;;;;;5054596;28;20081;-59
2023/05/31 08:39:46;;;;;;;2.55;1.30;;;;;;;;;;5054287;28;20029;-59
2023/05/31 08:42:15;;;;;;;3.22;1.52;;;;;;;;;;5054125;28;20086;-59
2023/05/31 08:44:42;;;;;;;4.13;1.48;;;;;;;;;;5053698;28;20420;-59
2023/05/31 08:47:11;;;;;;;2.72;1.73;;;;;;;;;;5054538;28;20025;-59
2023/05/31 08:49:38;;;;;;;3.43;1.73;;;;;;;;;;5054108;28;20079;-59
2023/05/31 08:52:04;;;;;;;5.03;1.83;;;;;;;;;;5054068;28;20459;-59
2023/05/31 08:54:31;;;;;;;11.82;1.80;;;;;;;;;;5053774;28;20045;-59
2023/05/31 08:56:57;;;;;;;3.38;1.55;;;;;;;;;;5054254;28;20028;-59
2023/05/31 08:59:23;;;;;;;4.10;1.80;;;;;;;;;;5054286;28;20087;-59
2023/05/31 09:01:50;;;;;;;3.17;1.83;;;;;;;;;;5053620;28;20059;-59
2023/05/31 09:04:16;;;;;;;3.10;1.60;;;;;;;;;;5053812;28;20017;-59
2023/05/31 09:06:42;;;;;;;3.30;1.73;;;;;;;;;;5054226;28;20039;-59
2023/05/31 09:09:08;;;;;;;3.90;2.28;;;;;;;;;;5053728;28;20538;-59
2023/05/31 09:11:37;;;;;;;1.88;1.17;;;;;;;;;;5054269;28;20036;-59
2023/05/31 09:14:03;;;;;;;2.55;1.45;;;;;;;;;;5053636;28;20502;-59
2023/05/31 09:16:29;;;;;;;2.85;1.50;;;;;;;;;;5054206;28;20021;-59
2023/05/31 09:19:02;;;;;;;3.97;1.38;;;;;;;;;;5053325;28;20031;-59
2023/05/31 09:21:29;;;;;;;2.97;1.40;;;;;;;;;;5053688;28;20649;-59
2023/05/31 09:23:59;;;;;;;2.42;1.05;;;;;;;;;;5053666;28;20106;-59
2023/05/31 09:26:25;;;;;;;3.05;1.52;;;;;;;;;;5054201;28;20017;-59
2023/05/31 09:28:54;;;;;;;3.53;1.45;;;;;;;;;;5054239;28;20051;-59
2023/05/31 09:31:21;;;;;;;3.17;1.65;;;;;;;;;;5053625;28;20491;-59
2023/05/31 09:33:47;;;;;;;2.90;1.50;;;;;;;;;;5053601;28;20379;-59
2023/05/31 09:36:14;;;;;;;3.90;2.40;;;;;;;;;;5054122;28;20020;-59
2023/05/31 09:38:40;;;;;;;3.13;1.85;;;;;;;;;;5054077;28;20035;-59
2023/05/31 09:41:16;;;;;;;4.18;1.92;;;;;;;;;;5053288;28;20064;-59
2023/05/31 09:43:43;;;;;;;3.00;1.58;;;;;;;;;;5053249;28;20067;-59
2023/05/31 09:46:16;;;;;;;2.95;2.05;;;;;;;;;;5054318;28;20391;-59
2023/05/31 09:48:43;;;;;;;4.38;1.80;;;;;;;;;;5053920;28;20017;-59
2023/05/31 09:51:09;;;;;;;3.28;1.75;;;;;;;;;;5053635;28;20478;-59
2023/05/31 09:53:40;;;;;;;5.47;1.83;;;;;;;;;;5053940;28;20107;-59
2023/05/31 09:56:09;;;;;;;4.35;1.40;;;;;;;;;;5053635;28;20348;-59
2023/05/31 09:58:35;;;;;;;6.95;2.00;;;;;;;;;;5053268;28;20087;-59
2023/05/31 10:01:01;;;;;;;2.92;1.45;;;;;;;;;;5053230;28;20017;-59
2023/05/31 10:03:28;;;;;;;3.88;2.05;;;;;;;;;;5053354;28;20036;-59
2023/05/31 10:05:54;;;;;;;2.05;1.17;;;;;;;;;;5053396;28;20104;-59
2023/05/31 10:08:22;;;;;;;3.08;1.58;;;;;;;;;;5052990;28;20022;-60
2023/05/31 10:10:48;;;;;;;6.18;2.08;;;;;;;;;;5053237;28;20371;-59
2023/05/31 10:13:15;;;;;;;11.18;2.10;;;;;;;;;;5053140;28;20025;-60
2023/05/31 10:15:41;;;;;;;2.50;1.48;;;;;;;;;;5053023;28;20049;-59
2023/05/31 10:18:10;;;;;;;4.65;2.08;;;;;;;;;;5053438;28;20033;-59
2023/05/31 10:20:40;;;;;;;3.05;1.73;;;;;;;;;;5053075;28;20032;-59
2023/05/31 10:23:08;;;;;;;3.33;1.20;;;;;;;;;;5053080;28;20063;-59
2023/05/31 10:25:41;;;;;;;2.47;1.60;;;;;;;;;;5053427;28;20036;-59
2023/05/31 10:28:11;;;;;;;3.55;1.63;;;;;;;;;;5053744;28;20031;-59
2023/05/31 10:30:39;;;;;;;6.15;1.73;;;;;;;;;;5052812;28;20083;-59
2023/05/31 10:33:11;;;;;;;3.55;1.55;;;;;;;;;;5055596;28;20103;-59
2023/05/31 10:35:37;;;;;;;2.53;1.50;;;;;;;;;;5056314;28;20021;-59
2023/05/31 10:38:04;;;;;;;3.80;1.70;;;;;;;;;;5056874;28;20021;-59
2023/05/31 10:40:46;;;;;;;3.35;1.65;;;;;;;;;;5056529;28;20467;-59
2023/05/31 10:43:19;;;;;;;2.90;1.75;;;;;;;;;;5056837;28;20414;-60
2023/05/31 10:45:47;;;;;;;6.40;1.27;;;;;;;;;;5056164;28;20070;-59
2023/05/31 10:48:21;;;;;;;2.60;1.58;;;;;;;;;;5056746;28;20075;-59
2023/05/31 10:50:53;;;;;;;3.08;1.70;;;;;;;;;;5057045;28;20029;-59
2023/05/31 10:53:19;;;;;;;4.57;1.73;;;;;;;;;;5056253;28;20047;-59
2023/05/31 10:55:46;;;;;;;2.97;1.38;;;;;;;;;;5056428;28;20055;-59
2023/05/31 10:58:26;;;;;;;2.65;1.38;;;;;;;;;;5056832;28;20025;-59
2023/05/31 11:00:54;;;;;;;5.30;1.42;;;;;;;;;;5056248;28;20098;-60
2023/05/31 11:03:23;;;;;;;3.42;1.60;;;;;;;;;;5055987;28;20025;-59
2023/05/31 11:05:56;;;;;;;3.23;1.30;;;;;;;;;;5056285;28;20049;-59
2023/05/31 11:08:22;;;;;;;2.45;1.33;;;;;;;;;;5056606;28;20025;-60
2023/05/31 11:10:48;;;;;;;5.85;1.60;;;;;;;;;;5056483;28;20033;-59
2023/05/31 11:13:14;;;;;;;2.50;1.50;;;;;;;;;;5056203;28;20025;-59
2023/05/31 11:15:41;;;;;;;2.25;1.27;;;;;;;;;;5055412;28;20048;-60
2023/05/31 11:18:09;;;;;;;6.50;1.75;;;;;;;;;;5056268;28;20467;-59
2023/05/31 11:20:38;;;;;;;2.65;1.52;;;;;;;;;;5056336;28;20036;-59
2023/05/31 11:23:19;;;;;;;3.58;1.38;;;;;;;;;;5055592;28;20021;-59
2023/05/31 11:26:05;;;;;;;6.15;1.48;;;;;;;;;;5056019;28;20029;-60
2023/05/31 11:28:31;;;;;;;2.90;1.30;;;;;;;;;;5056181;28;20034;-59
2023/05/31 11:30:57;;;;;;;3.63;1.83;;;;;;;;;;5055633;28;20478;-59
2023/05/31 11:33:23;;;;;;;2.80;1.73;;;;;;;;;;5055834;28;20100;-60
2023/05/31 11:35:49;;;;;;;3.65;1.88;;;;;;;;;;5055367;28;20025;-59
2023/05/31 11:38:15;;;;;;;3.03;1.88;;;;;;;;;;5055449;28;20075;-59
2023/05/31 11:40:42;;;;;;;5.95;1.58;;;;;;;;;;5056245;28;20386;-59
2023/05/31 11:43:09;;;;;;;4.30;1.70;;;;;;;;;;5055952;28;20029;-60
2023/05/31 11:45:35;;;;;;;5.47;1.65;;;;;;;;;;5055133;28;20378;-59
2023/05/31 11:48:20;;;;;;;4.68;1.70;;;;;;;;;;5055364;28;20463;-60
2023/05/31 11:50:46;;;;;;;2.45;1.13;;;;;;;;;;5054797;28;20505;-60
2023/05/31 11:53:14;;;;;;;4.53;1.67;;;;;;;;;;5055386;28;20025;-60
2023/05/31 11:55:44;;;;;;;3.22;1.80;;;;;;;;;;5055674;28;20044;-59
2023/05/31 11:58:10;;;;;;;3.53;1.90;;;;;;;;;;5055452;28;20029;-60
2023/05/31 12:00:43;;;;;;;2.30;1.27;;;;;;;;;;5054879;28;20051;-60
2023/05/31 12:03:14;;;;;;;4.38;1.48;;;;;;;;;;5056064;28;20049;-59
2023/05/31 12:05:41;;;;;;;2.28;1.33;;;;;;;;;;5054904;28;20029;-60
2023/05/31 12:08:12;;;;;;;2.97;1.17;;;;;;;;;;5055240;28;20144;-60
2023/05/31 12:10:38;;;;;;;11.38;1.88;;;;;;;;;;5054319;28;20029;-59
2023/05/31 12:13:04;;;;;;;4.70;1.50;;;;;;;;;;5054775;28;20025;-60
2023/05/31 12:15:31;;;;;;;4.82;1.40;;;;;;;;;;5055110;28;20544;-60
2023/05/31 12:18:00;;;;;;;3.13;2.10;;;;;;;;;;5054523;28;20482;-59
2023/05/31 12:20:34;;;;;;;3.67;1.40;;;;;;;;;;5054216;28;20395;-59
2023/05/31 12:23:13;;;;;;;2.97;1.60;;;;;;;;;;5054379;28;20355;-60
2023/05/31 12:25:46;;;;;;;2.78;1.35;;;;;;;;;;5055193;28;20025;-60
2023/05/31 12:28:13;;;;;;;3.35;1.63;;;;;;;;;;5054371;28;20482;-59
2023/05/31 12:30:46;;;;;;;2.20;1.27;;;;;;;;;;5054215;28;20078;-60
2023/05/31 12:33:12;;;;;;;1.90;1.00;;;;;;;;;;5055003;28;20025;-59
2023/05/31 12:35:45;;;;;;;2.45;1.42;;;;;;;;;;5054650;28;20043;-60
2023/05/31 12:38:11;;;;;;;3.80;1.88;;;;;;;;;;5054170;28;20510;-59
2023/05/31 12:40:38;;;;;;;3.15;1.45;;;;;;;;;;5054527;28;20036;-59
2023/05/31 12:43:05;;;;;;;2.55;0.95;;;;;;;;;;5054627;28;20513;-60
2023/05/31 12:45:31;;;;;;;2.15;1.02;;;;;;;;;;5052770;28;20021;-60
2023/05/31 12:47:58;;;;;;;3.42;1.27;;;;;;;;;;5054129;28;20025;-60
2023/05/31 12:50:24;;;;;;;1.83;1.10;;;;;;;;;;5054449;28;20029;-60
2023/05/31 12:52:57;;;;;;;3.20;1.30;;;;;;;;;;5053782;28;20075;-60
2023/05/31 12:55:23;;;;;;;2.03;1.15;;;;;;;;;;5053194;28;20021;-60
2023/05/31 12:57:49;;;;;;;4.35;1.33;;;;;;;;;;5054418;28;20100;-60
2023/05/31 13:00:16;;;;;;;3.33;1.30;;;;;;;;;;5053587;28;20021;-60
2023/05/31 13:02:42;;;;;;;3.47;1.13;;;;;;;;;;5053566;28;20044;-60
2023/05/31 13:05:08;;;;;;;2.20;1.15;;;;;;;;;;5053630;28;20083;-60
2023/05/31 13:07:35;;;;;;;1.90;1.02;;;;;;;;;;5053890;28;20063;-60
2023/05/31 13:10:01;;;;;;;9.10;1.48;;;;;;;;;;5054124;28;20367;-60
2023/05/31 13:12:27;;;;;;;2.05;1.17;;;;;;;;;;5053491;28;20059;-60
2023/05/31 13:14:53;;;;;;;2.95;1.50;;;;;;;;;;5053552;28;20553;-60
2023/05/31 13:17:19;;;;;;;3.50;0.98;;;;;;;;;;5053640;28;20125;-60
2023/05/31 13:19:45;;;;;;;2.20;1.13;;;;;;;;;;5053697;28;20025;-60
2023/05/31 13:22:12;;;;;;;3.63;1.38;;;;;;;;;;5053497;28;20484;-60
2023/05/31 13:24:38;;;;;;;3.95;1.52;;;;;;;;;;5053466;28;20029;-60
2023/05/31 13:27:04;;;;;;;2.78;1.73;;;;;;;;;;5053627;28;20032;-61
2023/05/31 13:29:30;;;;;;;2.55;1.40;;;;;;;;;;5053528;28;20430;-61
2023/05/31 13:31:56;;;;;;;4.28;1.55;;;;;;;;;;5053399;28;20032;-61
2023/05/31 13:34:22;;;;;;;2.92;0.85;;;;;;;;;;5053296;28;20026;-60
2023/05/31 13:36:48;;;;;;;1.55;0.93;;;;;;;;;;5053610;28;20028;-60
2023/05/31 13:39:14;;;;;;;4.40;1.40;;;;;;;;;;5053169;28;20029;-60
2023/05/31 13:41:43;;;;;;;3.22;1.30;;;;;;;;;;5052935;28;20033;-60
2023/05/31 13:44:11;;;;;;;2.53;1.30;;;;;;;;;;5053116;28;20363;-60
2023/05/31 13:46:37;;;;;;;2.88;1.27;;;;;;;;;;5053227;28;20457;-60
2023/05/31 13:49:03;;;;;;;3.42;1.30;;;;;;;;;;5053476;28;20052;-60
2023/05/31 13:51:29;;;;;;;4.50;1.20;;;;;;;;;;5053475;28;20025;-60
2023/05/31 13:53:55;;;;;;;2.28;1.23;;;;;;;;;;5053256;28;20036;-60
2023/05/31 13:56:21;;;;;;;3.33;1.02;;;;;;;;;;5053115;28;20074;-60
2023/05/31 13:58:47;;;;;;;3.13;1.67;;;;;;;;;;5053071;28;20025;-60
2023/05/31 14:01:13;;;;;;;3.35;1.63;;;;;;;;;;5053163;28;20028;-60
2023/05/31 14:03:39;;;;;;;3.17;1.30;;;;;;;;;;5053082;28;20409;-60
2023/05/31 14:06:06;;;;;;;2.63;1.42;;;;;;;;;;5054764;28;20053;-60
2023/05/31 14:08:32;;;;;;;2.35;1.10;;;;;;;;;;5056682;28;20021;-60
2023/05/31 14:10:58;;;;;;;3.20;1.40;;;;;;;;;;5056512;28;20525;-60
2023/05/31 14:13:24;;;;;;;2.50;1.17;;;;;;;;;;5056932;28;20020;-60
2023/05/31 14:15:52;;;;;;;3.05;1.25;;;;;;;;;;5056290;28;20045;-60
2023/05/31 14:18:18;;;;;;;1.83;0.80;;;;;;;;;;5056697;28;20035;-60
2023/05/31 14:20:45;;;;;;;1.25;0.75;;;;;;;;;;5056380;28;20021;-60
2023/05/31 14:23:11;;;;;;;3.03;1.13;;;;;;;;;;5057165;28;20025;-60
2023/05/31 14:25:37;;;;;;;3.90;1.30;;;;;;;;;;5055461;28;20025;-60
2023/05/31 14:28:03;;;;;;;2.63;1.45;;;;;;;;;;5056783;28;20074;-60
2023/05/31 14:30:29;;;;;;;2.08;1.00;;;;;;;;;;5056371;28;20533;-60
2023/05/31 14:32:55;;;;;;;1.98;1.25;;;;;;;;;;5057145;28;20029;-60
2023/05/31 14:35:21;;;;;;;1.95;1.15;;;;;;;;;;5056727;28;20478;-60
2023/05/31 14:37:48;;;;;;;3.47;1.33;;;;;;;;;;5056827;28;20036;-60
2023/05/31 14:40:14;;;;;;;3.97;1.30;;;;;;;;;;5056545;28;20410;-60
2023/05/31 14:42:40;;;;;;;5.95;1.35;;;;;;;;;;5057078;28;20028;-60